Time;durP1;ratioP1;P1;durP2;ratioP2;P2;SDS_P1;SDS_P2;PMS_P1;PMS_P2;Temp;Humidity;BMP_temperature;BMP_pressure;BME280_temperature;BME280_humidity;BME280_pressure;Samples;Min_cycle;Max_cycle;Signal;HPM_P1;HPM_P2
2021/08/19 00:01:34;;;;;;;3.42;2.13;;;21.50;82.70;;;;;;5092438;28;20024;-73
2021/08/19 00:04:00;;;;;;;2.97;1.88;;;21.50;82.80;;;;;;5092501;28;20077;-73
2021/08/19 00:06:26;;;;;;;5.50;1.92;;;21.50;82.40;;;;;;5092145;28;20449;-74
2021/08/19 00:08:52;;;;;;;2.00;1.80;;;21.60;82.40;;;;;;5092269;28;20440;-73
2021/08/19 00:11:17;;;;;;;2.03;1.83;;;21.50;82.50;;;;;;5092311;28;20131;-73
2021/08/19 00:13:43;;;;;;;2.67;2.47;;;21.40;82.50;;;;;;5073747;28;20287;-73
2021/08/19 00:16:09;;;;;;;3.80;2.13;;;21.40;82.90;;;;;;5092311;28;20064;-73
2021/08/19 00:18:35;;;;;;;2.97;2.10;;;21.40;83.00;;;;;;5092114;28;20091;-73
2021/08/19 00:21:01;;;;;;;2.30;2.10;;;21.40;83.10;;;;;;5091927;28;20024;-73
2021/08/19 00:23:27;;;;;;;2.20;2.00;;;21.40;83.00;;;;;;5092012;28;20028;-73
2021/08/19 00:25:53;;;;;;;3.78;2.50;;;21.30;83.10;;;;;;5091946;28;20024;-73
2021/08/19 00:28:18;;;;;;;2.75;2.17;;;21.30;83.40;;;;;;5073593;28;20098;-73
2021/08/19 00:30:44;;;;;;;4.70;1.77;;;21.30;83.50;;;;;;5092075;28;20024;-73
2021/08/19 00:33:10;;;;;;;2.28;2.10;;;21.30;83.50;;;;;;5091837;28;20024;-73
2021/08/19 00:35:36;;;;;;;2.40;1.58;;;21.30;83.50;;;;;;5091827;28;20028;-74
2021/08/19 00:38:02;;;;;;;1.90;1.50;;;21.30;83.60;;;;;;5091948;28;20027;-73
2021/08/19 00:40:29;;;;;;;1.75;1.65;;;21.30;83.30;;;;;;5091766;28;20276;-73
2021/08/19 00:42:56;;;;;;;2.38;2.20;;;21.20;83.70;;;;;;5091525;28;20024;-73
2021/08/19 00:45:22;;;;;;;2.10;1.98;;;21.10;83.80;;;;;;5091820;28;20141;-73
2021/08/19 00:47:48;;;;;;;1.98;1.70;;;21.10;84.10;;;;;;5073448;28;20034;-73
2021/08/19 00:50:14;;;;;;;2.65;2.22;;;21.00;84.60;;;;;;5091581;28;20024;-73
2021/08/19 00:52:41;;;;;;;1.73;1.63;;;20.90;85.00;;;;;;5091455;28;20020;-73
2021/08/19 00:55:09;;;;;;;2.50;1.70;;;20.90;84.70;;;;;;5087922;28;20066;-73
2021/08/19 00:57:37;;;;;;;1.95;1.75;;;20.90;84.70;;;;;;5073294;28;20035;-73
2021/08/19 01:00:03;;;;;;;1.65;1.55;;;20.80;85.10;;;;;;5091489;28;20067;-73
2021/08/19 01:02:29;;;;;;;2.63;1.65;;;20.80;85.40;;;;;;5091546;28;20021;-73
2021/08/19 01:04:55;;;;;;;1.73;1.55;;;20.90;85.00;;;;;;5091429;28;20047;-73
2021/08/19 01:07:21;;;;;;;1.80;1.70;;;21.00;84.10;;;;;;5091166;28;20123;-73
2021/08/19 01:09:48;;;;;;;2.83;1.63;;;21.00;83.60;;;;;;5091647;28;20042;-73
2021/08/19 01:12:14;;;;;;;1.95;1.85;;;21.10;83.70;;;;;;5091268;28;20038;-73
2021/08/19 01:14:45;;;;;;;1.98;1.77;;;21.10;83.40;;;;;;5091341;28;20076;-73
2021/08/19 01:17:15;;;;;;;1.85;1.70;;;21.10;83.80;;;;;;5091217;28;20051;-73
2021/08/19 01:19:44;;;;;;;2.10;1.83;;;21.20;82.90;;;;;;5091245;28;20028;-73
2021/08/19 01:22:10;;;;;;;1.55;1.45;;;21.20;82.70;;;;;;5091131;28;20024;-73
2021/08/19 01:24:35;;;;;;;1.83;1.50;;;21.20;82.40;;;;;;5091310;28;20055;-74
2021/08/19 01:27:02;;;;;;;2.47;1.65;;;21.20;82.00;;;;;;5091094;28;20395;-73
2021/08/19 01:29:28;;;;;;;1.67;1.58;;;21.20;82.30;;;;;;5091476;28;20066;-73
2021/08/19 01:32:06;;;;;;;2.00;1.90;;;21.30;82.00;;;;;;5091324;28;20039;-74
2021/08/19 01:34:32;;;;;;;1.92;1.83;;;21.20;82.20;;;;;;5091209;28;20169;-73
2021/08/19 01:36:59;;;;;;;1.60;1.50;;;21.20;82.00;;;;;;5091374;28;20483;-73
2021/08/19 01:39:25;;;;;;;1.90;1.80;;;21.10;82.10;;;;;;5091103;28;20236;-73
2021/08/19 01:41:50;;;;;;;1.60;1.50;;;21.10;82.30;;;;;;5091069;28;20028;-73
2021/08/19 01:44:20;;;;;;;1.70;1.60;;;21.10;82.60;;;;;;5091077;28;20437;-73
2021/08/19 01:46:59;;;;;;;2.03;1.83;;;21.00;82.80;;;;;;5091286;28;20016;-73
2021/08/19 01:49:27;;;;;;;1.45;1.33;;;21.10;82.80;;;;;;5090976;28;20213;-73
2021/08/19 01:51:53;;;;;;;4.60;1.75;;;21.00;82.40;;;;;;5090981;28;20024;-73
2021/08/19 01:54:19;;;;;;;2.13;1.80;;;21.00;82.70;;;;;;5072740;28;20020;-73
2021/08/19 01:56:44;;;;;;;2.92;1.85;;;20.90;83.30;;;;;;5090939;28;20107;-73
2021/08/19 01:59:12;;;;;;;1.73;1.63;;;20.80;83.50;;;;;;5091017;28;20547;-73
2021/08/19 02:01:37;;;;;;;2.08;1.67;;;20.70;83.90;;;;;;5090972;28;20028;-73
2021/08/19 02:04:04;;;;;;;2.90;1.73;;;20.60;84.30;;;;;;5072600;28;20073;-73
2021/08/19 02:06:30;;;;;;;1.80;1.52;;;20.70;84.30;;;;;;5094148;28;20051;-73
2021/08/19 02:08:56;;;;;;;1.73;1.42;;;20.70;84.10;;;;;;5094839;28;20030;-73
2021/08/19 02:11:24;;;;;;;1.45;1.35;;;20.70;84.00;;;;;;5094443;28;20020;-73
2021/08/19 02:13:50;;;;;;;1.52;1.42;;;20.60;84.20;;;;;;5094492;28;20020;-73
2021/08/19 02:16:16;;;;;;;2.15;1.63;;;20.60;84.40;;;;;;5076510;28;20387;-73
2021/08/19 02:18:41;;;;;;;1.50;1.40;;;20.60;84.30;;;;;;5094381;28;20051;-73
2021/08/19 02:21:07;;;;;;;1.60;1.50;;;20.60;84.50;;;;;;5094298;28;20028;-73
2021/08/19 02:23:33;;;;;;;2.17;2.00;;;20.60;84.30;;;;;;5094351;28;20102;-74
2021/08/19 02:25:59;;;;;;;1.73;1.50;;;20.50;84.20;;;;;;5094203;28;20100;-73
2021/08/19 02:28:25;;;;;;;2.13;1.92;;;20.50;84.10;;;;;;5094383;28;20020;-73
2021/08/19 02:30:50;;;;;;;1.67;1.58;;;20.40;83.80;;;;;;5094200;28;20103;-73
2021/08/19 02:33:16;;;;;;;2.17;1.92;;;20.50;83.40;;;;;;5094087;28;20182;-73
2021/08/19 02:35:42;;;;;;;1.70;1.60;;;20.40;83.30;;;;;;5094235;28;20383;-73
2021/08/19 02:38:07;;;;;;;1.55;1.45;;;20.50;83.30;;;;;;5075838;28;20411;-73
2021/08/19 02:40:36;;;;;;;1.60;1.50;;;20.50;82.70;;;;;;5093877;28;20021;-73
2021/08/19 02:43:06;;;;;;;2.03;1.83;;;20.50;82.90;;;;;;5093893;28;20137;-73
2021/08/19 02:45:32;;;;;;;1.77;1.58;;;20.40;82.90;;;;;;5094048;28;20383;-74
2021/08/19 02:47:59;;;;;;;1.60;1.42;;;20.50;82.70;;;;;;5075714;28;20027;-74
2021/08/19 02:50:25;;;;;;;1.73;1.50;;;20.60;81.80;;;;;;5075632;28;20139;-73
2021/08/19 02:52:51;;;;;;;3.58;1.42;;;20.50;82.20;;;;;;5093731;28;20103;-73
2021/08/19 02:55:16;;;;;;;1.83;1.50;;;20.50;81.60;;;;;;5093963;28;20024;-73
2021/08/19 02:57:42;;;;;;;1.48;1.38;;;20.50;81.20;;;;;;5093621;28;20056;-73
2021/08/19 03:00:08;;;;;;;2.30;1.60;;;20.50;81.10;;;;;;5093758;28;20051;-73
2021/08/19 03:02:34;;;;;;;1.48;1.38;;;20.40;80.60;;;;;;5071994;28;20040;-73
2021/08/19 03:05:00;;;;;;;2.55;1.48;;;20.30;80.90;;;;;;5093409;28;20126;-73
2021/08/19 03:07:26;;;;;;;1.45;1.30;;;20.40;81.00;;;;;;5075169;28;20044;-73
2021/08/19 03:09:52;;;;;;;2.90;1.50;;;20.30;80.30;;;;;;5093343;28;20391;-73
2021/08/19 03:12:18;;;;;;;1.98;1.42;;;20.40;80.30;;;;;;5093384;28;20019;-73
2021/08/19 03:14:44;;;;;;;1.90;1.70;;;20.30;79.90;;;;;;5093465;28;20028;-73
2021/08/19 03:17:09;;;;;;;1.48;1.38;;;20.30;79.50;;;;;;5074306;28;20030;-73
2021/08/19 03:19:36;;;;;;;1.70;1.60;;;20.40;79.60;;;;;;5093083;28;20480;-73
2021/08/19 03:22:03;;;;;;;2.08;1.73;;;20.30;79.50;;;;;;5093248;28;20032;-73
2021/08/19 03:24:30;;;;;;;1.75;1.60;;;20.30;79.60;;;;;;5093170;28;20502;-73
2021/08/19 03:26:56;;;;;;;2.28;1.40;;;20.20;79.20;;;;;;5093089;28;20020;-74
2021/08/19 03:29:22;;;;;;;1.52;1.42;;;20.20;79.50;;;;;;5093129;28;20020;-73
2021/08/19 03:31:48;;;;;;;2.30;1.45;;;20.30;79.20;;;;;;5092841;28;20050;-73
2021/08/19 03:34:14;;;;;;;2.58;1.20;;;20.30;78.90;;;;;;5092956;28;20098;-73
2021/08/19 03:36:40;;;;;;;3.28;1.50;;;20.30;78.80;;;;;;5092896;28;20032;-73
2021/08/19 03:39:05;;;;;;;1.00;0.98;;;20.20;78.60;;;;;;5093006;28;20048;-73
2021/08/19 03:41:34;;;;;;;1.85;1.75;;;20.20;78.60;;;;;;5092618;28;20487;-73
2021/08/19 03:44:01;;;;;;;1.33;1.23;;;20.20;78.50;;;;;;5092632;28;20028;-73
2021/08/19 03:46:26;;;;;;;1.60;1.50;;;20.30;78.20;;;;;;5092853;28;20020;-73
2021/08/19 03:48:52;;;;;;;2.75;1.60;;;20.20;78.00;;;;;;5092721;28;20506;-73
2021/08/19 03:51:18;;;;;;;1.60;1.50;;;20.20;78.10;;;;;;5092347;28;20384;-73
2021/08/19 03:53:44;;;;;;;1.88;1.70;;;20.20;78.20;;;;;;5092774;28;20454;-73
2021/08/19 03:56:09;;;;;;;1.45;1.35;;;20.20;78.30;;;;;;5092496;28;20024;-74
2021/08/19 03:58:37;;;;;;;2.28;1.73;;;20.20;78.00;;;;;;5092532;28;20047;-73
2021/08/19 04:01:03;;;;;;;3.88;1.40;;;20.10;78.20;;;;;;5074243;28;20471;-74
2021/08/19 04:03:29;;;;;;;1.48;1.38;;;20.10;78.50;;;;;;5092285;28;20027;-74
2021/08/19 04:05:55;;;;;;;2.60;1.55;;;20.10;78.60;;;;;;5073985;28;20070;-73
2021/08/19 04:08:21;;;;;;;5.85;1.60;;;20.10;78.90;;;;;;5092511;28;20073;-73
2021/08/19 04:10:47;;;;;;;2.00;1.40;;;20.10;79.30;;;;;;5074050;28;20476;-73
2021/08/19 04:13:13;;;;;;;1.92;1.50;;;20.00;79.30;;;;;;5074021;28;20028;-73
2021/08/19 04:15:39;;;;;;;1.75;1.25;;;20.00;79.70;;;;;;5092371;28;20024;-73
2021/08/19 04:18:05;;;;;;;3.70;1.50;;;19.90;79.60;;;;;;5092239;28;20356;-73
2021/08/19 04:20:31;;;;;;;3.50;1.67;;;19.90;79.60;;;;;;5091981;28;20059;-73
2021/08/19 04:22:57;;;;;;;1.50;1.40;;;19.80;79.70;;;;;;5087713;28;20024;-73
2021/08/19 04:25:23;;;;;;;4.20;1.70;;;19.70;80.10;;;;;;5079458;28;20055;-73
2021/08/19 04:27:48;;;;;;;1.65;1.50;;;19.60;80.40;;;;;;5078012;28;20309;-73
2021/08/19 04:30:14;;;;;;;2.92;1.27;;;19.50;80.50;;;;;;5067026;28;20384;-73
2021/08/19 04:32:40;;;;;;;1.73;1.63;;;19.60;80.80;;;;;;5064267;28;20226;-73
2021/08/19 04:35:06;;;;;;;2.33;1.60;;;19.50;80.50;;;;;;5061828;28;20399;-73
2021/08/19 04:37:34;;;;;;;1.50;1.40;;;19.60;80.20;;;;;;5083804;28;20432;-73
2021/08/19 04:40:00;;;;;;;3.42;1.77;;;19.60;80.20;;;;;;5087455;28;20505;-73
2021/08/19 04:42:26;;;;;;;1.55;1.20;;;19.60;79.90;;;;;;5083982;28;20031;-74
2021/08/19 04:44:52;;;;;;;2.40;1.67;;;19.70;79.70;;;;;;5087462;28;20031;-73
2021/08/19 04:47:18;;;;;;;1.58;1.48;;;19.60;79.50;;;;;;5083755;28;20031;-73
2021/08/19 04:49:44;;;;;;;3.13;1.83;;;19.70;79.30;;;;;;5087315;28;20020;-74
2021/08/19 04:52:09;;;;;;;2.60;1.95;;;19.70;79.20;;;;;;5083432;28;20472;-74
2021/08/19 04:54:35;;;;;;;1.55;1.38;;;19.80;79.00;;;;;;5086616;28;20031;-73
2021/08/19 04:57:01;;;;;;;1.67;1.58;;;19.80;79.40;;;;;;5084974;28;20051;-73
2021/08/19 04:59:27;;;;;;;2.10;1.50;;;19.80;78.50;;;;;;5086742;28;20035;-73
2021/08/19 05:01:52;;;;;;;1.58;1.48;;;19.80;78.50;;;;;;5084253;28;20226;-73
2021/08/19 05:04:18;;;;;;;1.40;1.30;;;19.80;78.40;;;;;;5083683;28;20021;-73
2021/08/19 05:06:44;;;;;;;1.50;1.35;;;19.90;78.50;;;;;;5083370;28;20101;-74
2021/08/19 05:09:10;;;;;;;1.77;1.58;;;19.90;78.30;;;;;;5068582;28;20062;-73
2021/08/19 05:11:36;;;;;;;1.13;1.02;;;19.90;78.50;;;;;;5084851;28;20027;-73
2021/08/19 05:14:03;;;;;;;1.75;1.50;;;19.90;78.50;;;;;;5086033;28;20426;-74
2021/08/19 05:16:30;;;;;;;1.63;1.52;;;19.90;78.60;;;;;;5084652;28;20088;-73
2021/08/19 05:18:56;;;;;;;1.55;1.35;;;19.90;78.70;;;;;;5086223;28;20024;-73
2021/08/19 05:21:22;;;;;;;3.50;1.48;;;20.00;78.60;;;;;;5083288;28;20127;-73
2021/08/19 05:23:48;;;;;;;3.28;1.40;;;20.00;78.80;;;;;;5086746;28;20032;-74
2021/08/19 05:26:14;;;;;;;2.08;1.52;;;20.00;79.00;;;;;;5083579;28;20275;-73
2021/08/19 05:28:40;;;;;;;3.17;1.55;;;20.10;78.80;;;;;;5068032;28;20054;-73
2021/08/19 05:31:05;;;;;;;2.03;1.50;;;20.10;78.10;;;;;;5084567;28;20400;-73
2021/08/19 05:33:31;;;;;;;1.58;1.30;;;20.10;77.70;;;;;;5085960;28;20027;-73
2021/08/19 05:35:57;;;;;;;1.58;1.27;;;20.10;77.70;;;;;;5083892;28;20024;-73
2021/08/19 05:38:23;;;;;;;1.50;1.40;;;20.20;77.90;;;;;;5067537;28;20275;-73
2021/08/19 05:40:48;;;;;;;3.08;1.60;;;20.20;78.00;;;;;;5068404;28;20109;-73
2021/08/19 05:43:14;;;;;;;2.90;1.27;;;20.30;77.80;;;;;;5090225;28;20054;-73
2021/08/19 05:45:41;;;;;;;1.45;1.35;;;20.30;77.90;;;;;;5088089;28;20045;-73
2021/08/19 05:48:07;;;;;;;2.47;1.45;;;20.30;77.50;;;;;;5090219;28;20495;-74
2021/08/19 05:50:33;;;;;;;1.55;1.40;;;20.30;77.90;;;;;;5088022;28;20031;-73
2021/08/19 05:53:00;;;;;;;2.33;1.60;;;20.30;78.10;;;;;;5088692;28;20008;-73
2021/08/19 05:55:26;;;;;;;3.47;1.85;;;20.40;78.40;;;;;;5088213;28;20480;-73
2021/08/19 05:57:51;;;;;;;1.35;1.25;;;20.50;78.60;;;;;;5089465;28;20032;-73
2021/08/19 06:00:22;;;;;;;2.20;1.65;;;20.50;78.00;;;;;;5071416;28;20247;-73
2021/08/19 06:02:52;;;;;;;2.85;1.70;;;20.50;77.80;;;;;;5088285;28;20020;-73
2021/08/19 06:05:18;;;;;;;1.58;1.48;;;20.60;78.00;;;;;;5072014;28;20046;-73
2021/08/19 06:07:44;;;;;;;3.05;1.45;;;20.60;78.00;;;;;;5087892;28;20134;-73
2021/08/19 06:10:11;;;;;;;1.65;1.52;;;20.70;78.50;;;;;;5090289;28;20027;-73
2021/08/19 06:12:37;;;;;;;3.42;1.35;;;20.80;78.20;;;;;;5087202;28;20020;-73
2021/08/19 06:15:05;;;;;;;5.15;1.95;;;20.80;77.60;;;;;;5090501;28;20402;-73
2021/08/19 06:17:33;;;;;;;1.98;1.77;;;20.80;77.60;;;;;;5086262;28;20081;-73
2021/08/19 06:19:59;;;;;;;2.83;1.90;;;21.00;78.30;;;;;;5089952;28;20028;-75
2021/08/19 06:22:25;;;;;;;1.73;1.63;;;21.00;78.00;;;;;;5086735;28;20128;-74
2021/08/19 06:24:51;;;;;;;1.90;1.70;;;21.10;77.70;;;;;;5071863;28;20116;-74
2021/08/19 06:27:17;;;;;;;1.55;1.42;;;21.10;77.90;;;;;;5087454;28;20118;-74
2021/08/19 06:29:43;;;;;;;2.28;2.03;;;21.20;77.90;;;;;;5089662;28;20046;-74
2021/08/19 06:32:09;;;;;;;5.75;1.70;;;21.30;77.30;;;;;;5087560;28;20392;-74
2021/08/19 06:34:35;;;;;;;2.47;1.60;;;21.40;77.30;;;;;;5088171;28;20042;-75
2021/08/19 06:37:01;;;;;;;1.98;1.80;;;21.40;77.20;;;;;;5087352;28;20118;-74
2021/08/19 06:39:27;;;;;;;4.30;1.60;;;21.50;77.30;;;;;;5088940;28;20024;-74
2021/08/19 06:41:53;;;;;;;2.80;1.70;;;21.60;77.70;;;;;;5073813;28;20127;-74
2021/08/19 06:44:19;;;;;;;1.85;1.52;;;21.60;77.80;;;;;;5075743;28;20024;-74
2021/08/19 06:46:44;;;;;;;1.70;1.60;;;21.70;77.70;;;;;;5093792;28;20472;-74
2021/08/19 06:49:10;;;;;;;1.83;1.65;;;21.80;77.30;;;;;;5093785;28;20024;-74
2021/08/19 06:51:36;;;;;;;1.67;1.27;;;21.80;77.30;;;;;;5093526;28;20112;-75
2021/08/19 06:54:02;;;;;;;1.85;1.60;;;21.90;77.90;;;;;;5093908;28;20063;-74
2021/08/19 06:56:28;;;;;;;1.55;1.45;;;22.00;78.70;;;;;;5093778;28;20035;-75
2021/08/19 06:58:54;;;;;;;5.78;1.45;;;22.10;79.40;;;;;;5075550;28;20054;-74
2021/08/19 07:01:19;;;;;;;5.15;1.60;;;22.10;79.50;;;;;;5093488;28;20047;-74
2021/08/19 07:03:45;;;;;;;1.67;1.58;;;22.10;79.30;;;;;;5093356;28;20291;-74
2021/08/19 07:06:12;;;;;;;2.80;1.67;;;22.20;79.00;;;;;;5093440;28;20017;-74
2021/08/19 07:08:38;;;;;;;1.77;1.67;;;22.20;78.70;;;;;;5093170;28;20024;-75
2021/08/19 07:11:04;;;;;;;1.30;1.20;;;22.30;77.70;;;;;;5090689;28;20173;-75
2021/08/19 07:13:31;;;;;;;1.50;1.40;;;22.30;77.60;;;;;;5093429;28;20042;-74
2021/08/19 07:15:57;;;;;;;5.32;1.50;;;22.40;77.70;;;;;;5093341;28;20024;-75
2021/08/19 07:18:22;;;;;;;1.65;1.50;;;22.40;80.00;;;;;;5093305;28;20032;-74
2021/08/19 07:20:48;;;;;;;1.80;1.40;;;22.50;80.00;;;;;;5093052;28;20027;-75
2021/08/19 07:23:14;;;;;;;2.22;1.52;;;22.50;78.30;;;;;;5093266;28;20032;-74
2021/08/19 07:25:40;;;;;;;1.92;1.70;;;22.60;77.70;;;;;;5093043;28;20206;-75
2021/08/19 07:28:06;;;;;;;1.30;1.20;;;22.60;78.60;;;;;;5093277;28;20494;-74
2021/08/19 07:30:31;;;;;;;1.38;1.27;;;22.70;78.90;;;;;;5093042;28;20027;-74
2021/08/19 07:32:58;;;;;;;1.90;1.42;;;22.80;78.40;;;;;;5092973;28;20103;-74
2021/08/19 07:35:24;;;;;;;2.17;1.77;;;22.80;79.00;;;;;;5092979;28;20027;-74
2021/08/19 07:37:53;;;;;;;3.88;1.77;;;22.90;79.20;;;;;;5092856;28;20020;-74
2021/08/19 07:40:22;;;;;;;1.52;1.42;;;23.00;76.60;;;;;;5092765;28;20279;-74
2021/08/19 07:42:50;;;;;;;1.58;1.48;;;23.00;75.50;;;;;;5092845;28;20021;-74
2021/08/19 07:45:17;;;;;;;1.77;1.67;;;23.20;78.60;;;;;;5092609;28;20047;-74
2021/08/19 07:47:43;;;;;;;2.20;1.65;;;23.30;79.60;;;;;;5093894;28;20024;-75
2021/08/19 07:50:11;;;;;;;1.50;1.40;;;23.30;78.90;;;;;;5093692;28;20035;-74
2021/08/19 07:52:38;;;;;;;2.67;1.73;;;23.40;80.30;;;;;;5094045;28;20101;-74
2021/08/19 07:55:05;;;;;;;2.08;1.77;;;23.50;76.70;;;;;;5093738;28;20024;-74
2021/08/19 07:58:00;;;;;;;3.40;1.90;;;23.60;75.90;;;;;;5093874;28;20038;-74
2021/08/19 08:00:29;;;;;;;1.75;1.48;;;23.60;75.90;;;;;;5080167;28;20035;-74
2021/08/19 08:02:55;;;;;;;2.45;1.63;;;23.60;76.50;;;;;;5092638;28;20024;-74
2021/08/19 08:05:23;;;;;;;1.80;1.70;;;23.60;73.10;;;;;;5092252;28;20055;-74
2021/08/19 08:07:49;;;;;;;3.58;1.65;;;23.60;72.80;;;;;;5074116;28;20040;-75
2021/08/19 08:10:15;;;;;;;1.63;1.52;;;23.70;74.20;;;;;;5092263;28;20024;-75
2021/08/19 08:12:41;;;;;;;2.08;1.60;;;23.70;73.50;;;;;;5074282;28;20422;-75
2021/08/19 08:15:07;;;;;;;1.95;1.73;;;23.70;75.00;;;;;;5092044;28;20028;-75
2021/08/19 08:17:34;;;;;;;2.50;1.83;;;23.80;74.10;;;;;;5092383;28;20024;-75
2021/08/19 08:20:01;;;;;;;2.15;1.73;;;23.80;71.10;;;;;;5092139;28;20024;-75
2021/08/19 08:22:26;;;;;;;2.17;1.95;;;23.90;73.70;;;;;;5091828;28;20032;-75
2021/08/19 08:24:52;;;;;;;2.70;1.52;;;24.00;74.00;;;;;;5092100;28;20016;-75
2021/08/19 08:27:18;;;;;;;1.45;1.35;;;24.10;71.00;;;;;;5092098;28;20028;-75
2021/08/19 08:29:44;;;;;;;1.50;1.30;;;24.10;70.90;;;;;;5091892;28;20069;-75
2021/08/19 08:32:10;;;;;;;1.52;1.42;;;24.30;70.60;;;;;;5092018;28;20031;-75
2021/08/19 08:34:38;;;;;;;4.10;1.40;;;24.30;66.60;;;;;;5091919;28;20031;-75
2021/08/19 08:37:04;;;;;;;2.42;1.40;;;24.30;68.00;;;;;;5091973;28;20028;-75
2021/08/19 08:39:33;;;;;;;1.83;1.73;;;24.30;69.10;;;;;;5091972;28;20114;-75
2021/08/19 08:41:59;;;;;;;2.00;1.88;;;24.30;66.40;;;;;;5073614;28;20028;-75
2021/08/19 08:44:28;;;;;;;2.22;1.70;;;24.20;67.50;;;;;;5091537;28;20024;-75
2021/08/19 08:46:55;;;;;;;2.20;1.67;;;24.30;67.90;;;;;;5091631;28;20024;-75
2021/08/19 08:49:22;;;;;;;5.57;1.50;;;24.30;67.10;;;;;;5091704;28;20024;-75
2021/08/19 08:51:52;;;;;;;1.90;1.20;;;24.30;67.50;;;;;;5091686;28;20024;-75
2021/08/19 08:54:19;;;;;;;1.90;1.55;;;24.30;65.50;;;;;;5073471;28;20028;-75
2021/08/19 08:56:45;;;;;;;2.70;1.70;;;24.30;66.90;;;;;;5073366;28;20027;-75
2021/08/19 08:59:10;;;;;;;2.70;1.45;;;24.40;67.70;;;;;;5091649;28;20028;-75
2021/08/19 09:01:36;;;;;;;1.85;1.67;;;24.50;68.10;;;;;;5091569;28;20020;-75
2021/08/19 09:04:03;;;;;;;1.90;1.52;;;24.50;67.20;;;;;;5091283;28;20256;-75
2021/08/19 09:06:41;;;;;;;1.55;1.45;;;24.50;69.00;;;;;;5091517;28;20040;-75
2021/08/19 09:09:14;;;;;;;1.30;1.20;;;24.50;68.70;;;;;;5091361;28;20099;-75
2021/08/19 09:11:47;;;;;;;1.45;1.35;;;24.60;68.00;;;;;;5091939;28;20048;-75
2021/08/19 09:14:22;;;;;;;1.40;1.27;;;24.60;67.70;;;;;;5074333;28;20364;-75
2021/08/19 09:16:48;;;;;;;3.40;1.50;;;24.70;64.40;;;;;;5095687;28;20079;-75
2021/08/19 09:19:29;;;;;;;4.65;1.45;;;24.80;63.40;;;;;;5094555;28;20023;-75
2021/08/19 09:21:57;;;;;;;1.40;1.27;;;24.90;64.80;;;;;;5057362;28;20032;-75
2021/08/19 09:24:27;;;;;;;3.47;1.77;;;24.90;62.80;;;;;;5075326;28;20036;-75
2021/08/19 09:26:55;;;;;;;1.90;1.50;;;25.00;64.00;;;;;;5057277;28;20415;-75
2021/08/19 09:29:30;;;;;;;3.28;2.17;;;25.10;64.70;;;;;;5075086;28;20025;-75
2021/08/19 09:32:09;;;;;;;2.42;1.27;;;25.10;64.00;;;;;;5075236;28;20027;-75
2021/08/19 09:34:36;;;;;;;1.65;1.55;;;25.10;62.90;;;;;;5075073;28;20384;-75
2021/08/19 09:37:04;;;;;;;1.90;1.52;;;25.10;63.50;;;;;;5075181;28;20039;-75
2021/08/19 09:39:56;;;;;;;1.63;1.50;;;25.10;64.20;;;;;;5075124;28;20021;-75
2021/08/19 09:42:35;;;;;;;1.63;1.52;;;25.10;63.80;;;;;;5074933;28;20032;-75
2021/08/19 09:45:23;;;;;;;1.65;1.48;;;25.20;63.30;;;;;;5056891;28;20024;-75
2021/08/19 09:47:52;;;;;;;1.70;1.60;;;25.20;60.90;;;;;;5075031;28;20048;-75
2021/08/19 09:50:20;;;;;;;1.63;1.52;;;25.20;57.30;;;;;;5085496;28;20024;-75
2021/08/19 09:52:48;;;;;;;2.10;1.50;;;25.20;57.10;;;;;;5094986;28;20020;-75
2021/08/19 09:55:32;;;;;;;1.40;1.30;;;25.30;56.00;;;;;;5094911;28;20024;-75
2021/08/19 09:58:00;;;;;;;6.20;1.70;;;25.50;56.90;;;;;;5095119;28;20177;-75
2021/08/19 10:00:41;;;;;;;1.90;1.38;;;25.60;55.40;;;;;;5076823;28;20035;-75
2021/08/19 10:03:11;;;;;;;3.08;1.30;;;25.60;53.90;;;;;;5094813;28;20043;-75
2021/08/19 10:05:38;;;;;;;3.78;1.52;;;25.70;54.30;;;;;;5094758;28;20020;-75
2021/08/19 10:08:05;;;;;;;1.48;1.38;;;25.80;54.20;;;;;;5094358;28;20499;-75
2021/08/19 10:10:31;;;;;;;2.00;1.83;;;25.80;53.50;;;;;;5094727;28;20020;-75
2021/08/19 10:13:01;;;;;;;1.70;0.98;;;25.90;54.60;;;;;;5094613;28;20017;-75
2021/08/19 10:15:30;;;;;;;1.98;1.33;;;26.00;54.00;;;;;;5094589;28;20020;-75
2021/08/19 10:17:57;;;;;;;1.85;1.33;;;26.10;52.80;;;;;;5094467;28;20115;-75
2021/08/19 10:20:29;;;;;;;2.35;1.27;;;26.00;51.80;;;;;;5094515;28;20024;-75
2021/08/19 10:22:57;;;;;;;1.15;1.10;;;26.00;53.70;;;;;;5076378;28;20042;-75
2021/08/19 10:25:25;;;;;;;1.30;1.20;;;26.20;53.10;;;;;;5094049;28;20028;-75
2021/08/19 10:28:13;;;;;;;1.38;1.17;;;26.20;52.70;;;;;;5094533;28;20047;-75
2021/08/19 10:30:55;;;;;;;1.00;1.00;;;26.30;52.50;;;;;;5076270;28;20488;-75
2021/08/19 10:33:36;;;;;;;1.48;1.38;;;26.40;53.90;;;;;;5094274;28;20024;-75
2021/08/19 10:36:10;;;;;;;1.58;1.40;;;26.40;53.40;;;;;;5094209;28;20604;-74
2021/08/19 10:38:38;;;;;;;1.60;1.50;;;26.50;54.80;;;;;;5094031;28;20029;-74
2021/08/19 10:41:30;;;;;;;1.30;1.20;;;26.50;54.90;;;;;;5093949;28;20012;-74
2021/08/19 10:44:04;;;;;;;3.30;1.50;;;26.50;56.00;;;;;;5093813;28;20510;-74
2021/08/19 10:46:38;;;;;;;1.42;1.33;;;26.60;55.50;;;;;;5094101;28;20258;-74
2021/08/19 10:49:04;;;;;;;1.17;1.13;;;26.60;51.80;;;;;;5094655;28;20395;-74
2021/08/19 10:51:29;;;;;;;1.55;1.45;;;26.60;52.60;;;;;;5074622;28;20012;-75
2021/08/19 10:53:55;;;;;;;1.38;1.20;;;26.70;53.70;;;;;;5092613;28;20035;-75
2021/08/19 10:56:44;;;;;;;1.63;1.52;;;26.70;51.60;;;;;;5092980;28;20016;-75
2021/08/19 10:59:31;;;;;;;2.08;1.45;;;26.70;52.50;;;;;;5074226;28;20067;-75
2021/08/19 11:01:59;;;;;;;1.38;1.27;;;26.90;52.60;;;;;;5093327;28;20072;-75
2021/08/19 11:04:44;;;;;;;1.30;1.20;;;27.20;51.30;;;;;;5093040;28;20031;-75
2021/08/19 11:07:10;;;;;;;1.27;1.17;;;27.20;49.70;;;;;;5093520;28;20048;-75
2021/08/19 11:09:37;;;;;;;2.50;1.85;;;27.30;51.90;;;;;;5075569;28;20020;-76
2021/08/19 11:12:06;;;;;;;3.22;1.50;;;27.30;52.60;;;;;;5093636;28;20047;-75
2021/08/19 11:14:32;;;;;;;2.05;1.50;;;27.30;51.20;;;;;;5093776;28;20019;-75
2021/08/19 11:17:01;;;;;;;2.17;1.35;;;27.30;51.10;;;;;;5093524;28;20168;-75
2021/08/19 11:19:29;;;;;;;1.52;1.20;;;27.20;49.10;;;;;;5093254;28;20023;-75
2021/08/19 11:21:59;;;;;;;1.30;1.20;;;27.30;50.80;;;;;;5093443;28;20031;-75
2021/08/19 11:24:27;;;;;;;1.05;1.02;;;27.20;50.50;;;;;;5093385;28;20047;-75
2021/08/19 11:27:02;;;;;;;1.80;1.30;;;27.30;50.30;;;;;;5093320;28;20395;-75
2021/08/19 11:29:39;;;;;;;3.72;1.50;;;27.20;51.00;;;;;;5090211;28;20403;-75
2021/08/19 11:32:15;;;;;;;1.52;1.17;;;27.30;50.50;;;;;;5075018;28;20360;-75
2021/08/19 11:34:50;;;;;;;0.80;0.80;;;27.40;51.80;;;;;;5093313;28;20036;-75
2021/08/19 11:37:33;;;;;;;2.13;1.23;;;27.40;50.70;;;;;;5092326;28;20047;-75
2021/08/19 11:40:00;;;;;;;3.03;1.38;;;27.60;51.50;;;;;;5075018;28;20119;-75
2021/08/19 11:42:28;;;;;;;1.88;1.52;;;27.70;50.30;;;;;;5093038;28;20066;-75
2021/08/19 11:45:17;;;;;;;1.27;1.17;;;27.80;51.10;;;;;;5092902;28;20106;-75
2021/08/19 11:47:48;;;;;;;1.33;1.23;;;27.90;51.20;;;;;;5092867;28;20016;-75
2021/08/19 11:50:14;;;;;;;1.55;1.30;;;28.00;53.30;;;;;;5074604;28;20111;-75
2021/08/19 11:52:40;;;;;;;1.30;1.20;;;28.10;52.50;;;;;;5092726;28;20123;-75
2021/08/19 11:55:07;;;;;;;1.40;1.30;;;28.10;52.60;;;;;;5092935;28;20016;-75
2021/08/19 11:57:33;;;;;;;1.15;1.05;;;28.20;51.70;;;;;;5092691;28;20028;-75
2021/08/19 12:00:00;;;;;;;4.18;1.20;;;28.30;50.60;;;;;;5092427;28;20107;-75
2021/08/19 12:02:26;;;;;;;1.20;1.05;;;28.40;51.00;;;;;;5092659;28;20031;-75
2021/08/19 12:05:10;;;;;;;1.30;1.20;;;28.40;48.40;;;;;;5074222;28;20032;-75
2021/08/19 12:07:37;;;;;;;3.85;1.13;;;28.50;50.30;;;;;;5092348;28;20388;-75
2021/08/19 12:10:06;;;;;;;1.40;1.30;;;28.50;48.60;;;;;;5092280;28;20136;-75
2021/08/19 12:12:35;;;;;;;1.42;1.33;;;28.50;49.70;;;;;;5092340;28;20993;-75
2021/08/19 12:15:06;;;;;;;3.15;1.48;;;28.60;49.80;;;;;;5092424;28;20016;-75
2021/08/19 12:17:32;;;;;;;1.08;1.00;;;28.60;50.20;;;;;;5091430;28;20502;-75
2021/08/19 12:20:16;;;;;;;1.48;1.35;;;28.80;49.20;;;;;;5090618;28;20028;-75
2021/08/19 12:22:43;;;;;;;1.33;1.27;;;28.70;48.40;;;;;;5091543;28;20032;-75
2021/08/19 12:25:19;;;;;;;1.77;1.35;;;28.70;46.30;;;;;;5073591;28;20070;-75
2021/08/19 12:27:57;;;;;;;1.27;1.05;;;28.70;48.20;;;;;;5091935;28;20027;-75
2021/08/19 12:30:22;;;;;;;1.92;1.45;;;28.80;47.80;;;;;;5091954;28;20395;-75
2021/08/19 12:33:00;;;;;;;1.40;1.20;;;28.90;46.90;;;;;;5073874;28;20031;-75
2021/08/19 12:35:26;;;;;;;1.42;1.33;;;28.90;45.40;;;;;;5073862;28;20055;-75
2021/08/19 12:37:55;;;;;;;2.25;1.50;;;28.80;45.70;;;;;;5092000;28;20052;-75
2021/08/19 12:40:28;;;;;;;1.63;1.33;;;28.90;46.20;;;;;;5091939;28;20036;-75
2021/08/19 12:43:04;;;;;;;1.90;1.73;;;28.90;45.90;;;;;;5092042;28;20502;-75
2021/08/19 12:45:30;;;;;;;1.45;1.20;;;28.90;46.30;;;;;;5091491;28;20024;-75
2021/08/19 12:48:06;;;;;;;1.92;1.17;;;29.00;46.40;;;;;;5089549;28;20028;-75
2021/08/19 12:50:34;;;;;;;1.23;1.08;;;29.00;47.80;;;;;;5089028;28;20372;-75
2021/08/19 12:53:08;;;;;;;1.70;1.60;;;29.00;46.10;;;;;;5070417;28;20048;-75